Time;durP1;ratioP1;P1;durP2;ratioP2;P2;SDS_P1;SDS_P2;PMS_P1;PMS_P2;Temp;Humidity;BMP_temperature;BMP_pressure;BME280_temperature;BME280_humidity;BME280_pressure;Samples;Min_cycle;Max_cycle;Signal;HPM_P1;HPM_P2
2021/12/04 00:01:17;;;;;;;31.52;17.30;;;;;;;-2.76;100.00;99738.23;1755113;80;21810;-78
2021/12/04 00:03:43;;;;;;;33.65;15.63;;;;;;;-2.78;100.00;99733.52;1762150;79;21022;-76
2021/12/04 00:06:26;;;;;;;37.63;18.85;;;;;;;-2.81;100.00;99734.32;1742759;81;21073;-76
2021/12/04 00:08:49;;;;;;;39.85;19.30;;;;;;;-2.82;100.00;99733.89;1745104;81;20984;-77
2021/12/04 00:11:15;;;;;;;34.83;18.75;;;;;;;-2.82;100.00;99739.48;1749582;80;21060;-76
2021/12/04 00:13:42;;;;;;;34.20;17.85;;;;;;;-2.87;100.00;99740.72;1773973;80;21137;-75
2021/12/04 00:16:09;;;;;;;35.70;18.17;;;;;;;-2.88;100.00;99740.69;1779211;80;21041;-76
2021/12/04 00:18:35;;;;;;;34.33;17.60;;;;;;;-2.92;100.00;99746.66;1779702;80;21034;-75
2021/12/04 00:21:02;;;;;;;36.63;19.70;;;;;;;-2.98;100.00;99739.30;1781058;80;21061;-74
2021/12/04 00:23:30;;;;;;;32.42;17.77;;;;;;;-2.92;100.00;99742.39;1780455;80;21651;-73
2021/12/04 00:25:56;;;;;;;36.08;17.95;;;;;;;-2.95;100.00;99741.05;1779747;80;21075;-75
2021/12/04 00:28:24;;;;;;;38.50;20.20;;;;;;;-3.02;100.00;99738.82;1779450;80;21494;-72
2021/12/04 00:30:50;;;;;;;30.97;16.93;;;;;;;-3.05;100.00;99742.66;1779002;80;21584;-73
2021/12/04 00:33:25;;;;;;;37.67;18.42;;;;;;;-3.08;100.00;99741.74;1778645;80;21766;-74
2021/12/04 00:35:53;;;;;;;30.45;16.20;;;;;;;-3.05;100.00;99739.22;1776279;80;21045;-74
2021/12/04 00:49:12;;;;;;;35.17;18.85;;;;;;;-3.10;100.00;99731.88;1778398;80;21076;-72
2021/12/04 00:51:46;;;;;;;36.42;17.98;;;;;;;-3.06;100.00;99732.33;1778240;80;21933;-74
2021/12/04 00:54:13;;;;;;;34.08;18.02;;;;;;;-3.11;100.00;99730.12;1778541;80;21002;-73
2021/12/04 00:56:41;;;;;;;33.05;17.73;;;;;;;-3.12;100.00;99733.13;1763804;80;21052;-72
2021/12/04 00:59:08;;;;;;;32.73;16.50;;;;;;;-3.14;100.00;99728.81;1747642;82;21111;-72
2021/12/04 01:01:38;;;;;;;35.10;18.73;;;;;;;-3.19;100.00;99730.91;1767655;80;21554;-73
2021/12/04 01:04:10;;;;;;;35.92;17.25;;;;;;;-3.13;100.00;99738.25;1778612;80;22048;-73
2021/12/04 01:06:37;;;;;;;32.70;17.17;;;;;;;-3.13;100.00;99731.38;1751282;80;21632;-74
2021/12/04 01:09:06;;;;;;;37.35;18.55;;;;;;;-3.16;100.00;99732.22;1778546;80;21017;-73
2021/12/04 01:11:34;;;;;;;34.20;17.42;;;;;;;-3.13;100.00;99730.53;1778110;80;21081;-72
2021/12/04 01:14:00;;;;;;;33.70;17.07;;;;;;;-3.12;100.00;99740.00;1778230;80;21085;-74
2021/12/04 01:16:27;;;;;;;35.10;18.37;;;;;;;-3.15;100.00;99736.97;1774892;80;21132;-72
2021/12/04 01:18:53;;;;;;;34.90;18.57;;;;;;;-3.17;100.00;99739.52;1750159;80;21061;-74
2021/12/04 01:21:20;;;;;;;38.92;20.17;;;;;;;-3.18;100.00;99749.36;1772180;80;21045;-73
2021/12/04 01:23:46;;;;;;;36.13;18.05;;;;;;;-3.16;100.00;99748.10;1772264;80;21058;-74
2021/12/04 01:26:13;;;;;;;38.17;18.35;;;;;;;-3.19;100.00;99746.36;1772922;80;21622;-75
2021/12/04 01:28:40;;;;;;;31.65;17.45;;;;;;;-3.23;100.00;99745.88;1772352;80;21124;-75
2021/12/04 01:31:06;;;;;;;33.98;16.75;;;;;;;-3.22;100.00;99750.19;1772716;80;21478;-74
2021/12/04 01:33:33;;;;;;;40.50;18.90;;;;;;;-3.26;100.00;99750.99;1743847;80;21164;-75
2021/12/04 01:36:00;;;;;;;33.45;16.45;;;;;;;-3.29;100.00;99758.69;1741994;82;21540;-76
2021/12/04 01:38:27;;;;;;;24.07;13.32;;;;;;;-3.29;100.00;99754.83;1743530;80;21010;-73
2021/12/04 01:40:53;;;;;;;32.15;17.57;;;;;;;-3.28;100.00;99758.26;1747173;82;21185;-74
2021/12/04 01:43:19;;;;;;;32.20;16.85;;;;;;;-3.30;100.00;99756.94;1747335;82;21117;-74
2021/12/04 01:45:47;;;;;;;34.90;18.05;;;;;;;-3.33;100.00;99768.93;1747445;82;21049;-76
2021/12/04 01:48:14;;;;;;;33.98;18.00;;;;;;;-3.34;100.00;99768.04;1747344;82;21061;-76
2021/12/04 01:50:41;;;;;;;32.30;18.05;;;;;;;-3.40;100.00;99763.69;1747222;82;21072;-74
2021/12/04 01:53:07;;;;;;;38.20;19.15;;;;;;;-3.44;100.00;99767.48;1752336;79;21150;-75
2021/12/04 01:55:35;;;;;;;34.10;16.75;;;;;;;-3.42;100.00;99773.09;1776832;79;21082;-75
2021/12/04 01:58:02;;;;;;;37.88;18.85;;;;;;;-3.43;100.00;99766.63;1771250;80;21015;-79
2021/12/04 02:00:35;;;;;;;37.10;17.95;;;;;;;-3.45;100.00;99773.06;1764216;79;21113;-76
2021/12/04 02:03:07;;;;;;;37.10;17.25;;;;;;;-3.46;100.00;99779.47;1781830;79;21042;-78
2021/12/04 02:05:38;;;;;;;40.83;20.75;;;;;;;-3.51;100.00;99779.41;1788162;80;21319;-78
2021/12/04 02:08:07;;;;;;;39.18;17.95;;;;;;;-3.48;100.00;99782.45;1708240;84;21101;-74
2021/12/04 02:10:34;;;;;;;;;;;;;;;-3.49;100.00;99784.16;1774561;80;21073;-74
2021/12/04 02:13:02;;;;;;;39.78;18.40;;;;;;;-3.51;100.00;99789.70;1772139;80;20219;-74
2021/12/04 02:15:30;;;;;;;30.43;16.67;;;;;;;-3.51;100.00;99775.97;1772267;80;21552;-74
2021/12/04 02:17:57;;;;;;;29.98;15.55;;;;;;;-3.53;100.00;99787.95;1772021;80;22020;-74
2021/12/04 02:20:27;;;;;;;35.13;16.45;;;;;;;-3.53;100.00;99790.10;1772072;80;21057;-73
2021/12/04 02:22:55;;;;;;;33.13;17.48;;;;;;;-3.53;100.00;99782.81;1772384;80;21124;-74
2021/12/04 02:25:22;;;;;;;34.13;16.80;;;;;;;-3.56;100.00;99784.06;1772062;80;21093;-74
2021/12/04 02:27:48;;;;;;;37.10;17.95;;;;;;;-3.55;100.00;99784.49;1772050;80;21182;-74
2021/12/04 02:30:19;;;;;;;37.80;16.80;;;;;;;-3.61;100.00;99782.28;1771989;80;21506;-75
2021/12/04 02:32:46;;;;;;;40.78;21.17;;;;;;;-3.62;100.00;99794.69;1772276;80;21559;-74
2021/12/04 02:35:12;;;;;;;34.20;15.93;;;;;;;-3.63;100.00;99799.41;1772818;80;21753;-74
2021/12/04 02:37:40;;;;;;;37.83;18.57;;;;;;;-3.64;100.00;99797.66;1772386;80;21057;-75
2021/12/04 02:40:09;;;;;;;37.48;18.50;;;;;;;-3.64;100.00;99801.52;1773017;80;21517;-75
2021/12/04 02:42:36;;;;;;;38.40;18.35;;;;;;;-3.67;100.00;99805.34;1772567;80;21814;-76
2021/12/04 02:45:06;;;;;;;36.60;18.50;;;;;;;-3.71;100.00;99806.12;1772746;80;21065;-74
2021/12/04 02:47:34;;;;;;;34.13;17.40;;;;;;;-3.73;100.00;99806.52;1772238;80;21471;-75
2021/12/04 02:50:04;;;;;;;45.67;19.98;;;;;;;-3.74;100.00;99811.24;1772306;80;20995;-73
2021/12/04 02:52:30;;;;;;;38.00;18.85;;;;;;;-3.75;100.00;99804.38;1772497;80;21049;-75
2021/12/04 02:54:57;;;;;;;35.95;17.12;;;;;;;-3.76;100.00;99806.48;1772543;80;21091;-75
2021/12/04 02:57:23;;;;;;;41.28;20.70;;;;;;;-3.79;100.00;99806.45;1772309;80;21055;-75
2021/12/04 02:59:51;;;;;;;36.48;19.73;;;;;;;-3.78;100.00;99804.31;1772318;80;21015;-75
2021/12/04 03:02:22;;;;;;;39.27;19.50;;;;;;;-3.80;100.00;99796.98;1772520;80;21058;-75
2021/12/04 03:04:55;;;;;;;41.15;20.72;;;;;;;-3.81;100.00;99801.70;1772883;80;21528;-76
2021/12/04 03:07:22;;;;;;;34.67;17.48;;;;;;;-3.80;100.00;99798.27;1772485;80;21556;-75
2021/12/04 03:09:50;;;;;;;35.90;18.77;;;;;;;-3.86;100.00;99795.63;1772703;80;20999;-74
2021/12/04 03:12:22;;;;;;;37.15;17.62;;;;;;;-3.85;100.00;99794.77;1772593;80;21081;-75
2021/12/04 03:14:51;;;;;;;46.58;20.92;;;;;;;-3.92;100.00;99788.66;1772510;80;21540;-79
2021/12/04 03:17:20;;;;;;;40.08;19.07;;;;;;;-3.98;100.00;99792.83;1777362;80;21057;-74
2021/12/04 03:19:46;;;;;;;41.45;19.02;;;;;;;-4.00;100.00;99792.83;1781094;80;21312;-76
2021/12/04 03:22:14;;;;;;;43.63;20.00;;;;;;;-4.04;100.00;99797.05;1781126;80;20997;-73
2021/12/04 03:24:42;;;;;;;52.55;22.42;;;;;;;-4.06;100.00;99806.44;1773248;80;21040;-75
2021/12/04 03:27:09;;;;;;;48.00;21.77;;;;;;;-4.04;100.00;99811.19;1771308;81;21040;-75
2021/12/04 03:29:41;;;;;;;51.55;23.57;;;;;;;-4.07;100.00;99811.55;1770853;81;21561;-74
2021/12/04 03:42:56;;;;;;;40.47;18.50;;;;;;;-4.14;100.00;99813.17;1750113;82;21064;-75
2021/12/04 03:45:22;;;;;;;39.73;19.77;;;;;;;-4.17;100.00;99816.10;1769646;79;21080;-76
2021/12/04 03:47:51;;;;;;;38.83;18.00;;;;;;;-4.17;100.00;99819.53;1769723;79;21037;-77
2021/12/04 03:50:17;;;;;;;36.87;18.73;;;;;;;-4.18;100.00;99821.67;1782800;79;21589;-76
2021/12/04 03:52:44;;;;;;;39.88;19.32;;;;;;;-4.18;100.00;99825.53;1790998;79;21074;-75
2021/12/04 03:55:11;;;;;;;35.47;17.20;;;;;;;-4.13;100.00;99825.18;1789764;79;21097;-75
2021/12/04 03:57:44;;;;;;;36.57;19.30;;;;;;;-4.13;100.00;99825.18;1714931;83;22010;-75
2021/12/04 04:00:08;;;;;;;36.77;17.57;;;;;;;-4.12;100.00;99824.33;1714180;83;21613;-76
2021/12/04 04:02:37;;;;;;;33.15;16.95;;;;;;;-4.11;100.00;99817.50;1743891;82;21064;-76
2021/12/04 04:05:05;;;;;;;36.13;18.80;;;;;;;-4.11;100.00;99820.93;1743858;82;21083;-75
2021/12/04 04:07:36;;;;;;;34.53;16.35;;;;;;;-4.05;100.00;99819.77;1714658;82;21103;-76
2021/12/04 04:10:05;;;;;;;38.13;19.03;;;;;;;-4.05;100.00;99827.48;1727688;83;21119;-75
2021/12/04 04:12:31;;;;;;;37.70;18.63;;;;;;;-3.99;100.00;99821.98;1698654;84;21137;-76
2021/12/04 04:14:57;;;;;;;36.90;18.63;;;;;;;-4.02;100.00;99818.52;1698510;84;21140;-74
2021/12/04 04:17:26;;;;;;;40.40;18.75;;;;;;;-4.04;100.00;99824.05;1697118;84;21521;-74
2021/12/04 04:19:52;;;;;;;33.28;16.57;;;;;;;-3.98;100.00;99831.41;1766445;81;21064;-74
2021/12/04 04:22:19;;;;;;;35.80;19.27;;;;;;;-3.97;100.00;99835.73;1766541;81;21194;-75
2021/12/04 04:24:45;;;;;;;40.07;19.53;;;;;;;-3.96;100.00;99837.03;1766314;81;21105;-73
2021/12/04 04:27:14;;;;;;;38.60;19.33;;;;;;;-3.97;100.00;99837.03;1766089;81;21050;-74
2021/12/04 04:29:41;;;;;;;42.50;21.50;;;;;;;-4.02;100.00;99836.52;1766280;81;21549;-74
2021/12/04 04:32:07;;;;;;;40.80;20.30;;;;;;;-3.96;100.00;99838.31;1700591;84;21069;-74
2021/12/04 04:34:37;;;;;;;40.73;19.65;;;;;;;-3.96;100.00;99845.17;1700724;84;22053;-76
2021/12/04 05:12:27;;;;;;;42.50;21.77;;;;;;;-4.44;100.00;99834.92;1741334;82;21559;-68
2021/12/04 05:14:58;;;;;;;40.47;19.87;;;;;;;-4.50;100.00;99847.66;1741253;82;21064;-65
2021/12/04 05:17:40;;;;;;;40.80;20.48;;;;;;;-4.56;100.00;99851.38;1734761;82;21036;-69
2021/12/04 05:19:56;;;;;;;46.27;21.80;;;;;;;-4.59;100.00;99854.33;1740605;81;21148;-69
2021/12/04 05:22:23;;;;;;;41.23;19.97;;;;;;;-4.62;100.00;99862.84;1739579;81;21792;-67
2021/12/04 05:24:49;;;;;;;44.97;21.10;;;;;;;-4.65;100.00;99861.08;1722013;83;21129;-68
2021/12/04 05:27:16;;;;;;;40.70;20.13;;;;;;;-4.66;100.00;99872.18;1721504;83;21142;-67
2021/12/04 05:29:43;;;;;;;53.90;24.83;;;;;;;-4.69;100.00;99872.13;1721278;83;21045;-67
2021/12/04 05:32:10;;;;;;;54.03;25.40;;;;;;;-4.69;100.00;99878.98;1721258;83;21037;-68
2021/12/04 05:34:38;;;;;;;52.27;25.00;;;;;;;-4.68;100.00;99880.70;1747443;81;21088;-69
2021/12/04 05:37:05;;;;;;;59.63;27.17;;;;;;;-4.68;100.00;99878.98;1751469;81;21092;-68
2021/12/04 05:39:31;;;;;;;57.63;27.33;;;;;;;-4.67;100.00;99886.27;1734940;81;21749;-68
2021/12/04 05:41:59;;;;;;;52.03;26.63;;;;;;;-4.71;100.00;99888.35;1694600;83;21578;-68
2021/12/04 05:44:26;;;;;;;60.87;29.73;;;;;;;-4.69;100.00;99891.83;1705362;83;21077;-68
2021/12/04 05:46:57;;;;;;;62.77;27.37;;;;;;;-4.71;100.00;99889.64;1687883;83;21144;-69
2021/12/04 05:49:28;;;;;;;64.43;31.93;;;;;;;-4.72;100.00;99887.89;1685698;83;21165;-68
2021/12/04 05:54:31;;;;;;;63.50;29.13;;;;;;;-4.79;100.00;99893.31;1710680;83;21617;-68
2021/12/04 05:56:47;;;;;;;58.80;29.50;;;;;;;-4.79;100.00;99893.73;1708368;83;21576;-68
2021/12/04 05:59:14;;;;;;;60.23;27.37;;;;;;;-4.80;100.00;99894.59;1703174;83;21554;-68
2021/12/04 06:01:40;;;;;;;67.23;31.47;;;;;;;-4.82;100.00;99894.97;1694178;83;21020;-68
2021/12/04 06:04:07;;;;;;;68.87;30.10;;;;;;;-4.79;100.00;99902.30;1682110;85;21244;-68
2021/12/04 06:06:33;;;;;;;62.37;27.80;;;;;;;-4.78;100.00;99899.34;1682033;85;21483;-68
2021/12/04 06:09:00;;;;;;;69.03;32.80;;;;;;;-4.75;100.00;99903.25;1739912;82;21045;-70
2021/12/04 06:11:26;;;;;;;63.27;28.73;;;;;;;-4.71;100.00;99910.19;1740256;82;21648;-68
2021/12/04 06:13:53;;;;;;;71.30;31.17;;;;;;;-4.70;100.00;99916.63;1740936;81;21405;-69
2021/12/04 06:16:20;;;;;;;61.17;28.50;;;;;;;-4.66;100.00;99915.00;1734140;81;21556;-69
2021/12/04 06:18:47;;;;;;;76.63;33.37;;;;;;;-4.63;100.00;99916.34;1657221;83;21006;-69
2021/12/04 06:23:59;;;;;;;67.27;31.13;;;;;;;-4.55;100.00;99917.37;1703307;83;21077;-69
2021/12/04 06:26:25;;;;;;;67.90;31.17;;;;;;;-4.54;100.00;99925.52;1706966;83;21589;-69
2021/12/04 06:28:52;;;;;;;63.93;28.17;;;;;;;-4.54;100.00;99925.52;1751009;80;21983;-69
2021/12/04 06:32:38;;;;;;;70.57;30.23;;;;;;;-4.47;100.00;99919.67;1787779;79;22682;-71
2021/12/04 06:35:05;;;;;;;59.53;25.40;;;;;;;-4.45;100.00;99926.14;1752700;81;21105;-70
2021/12/04 06:37:31;;;;;;;110.45;44.50;;;;;;;-4.36;100.00;99929.31;1752148;81;21292;-70
2021/12/04 06:40:00;;;;;;;91.73;40.93;;;;;;;-4.16;100.00;99922.86;1742777;81;21013;-69
2021/12/04 06:42:26;;;;;;;75.60;32.45;;;;;;;-4.04;100.00;99924.36;1750854;81;20993;-69
2021/12/04 06:44:55;;;;;;;82.02;34.53;;;;;;;-3.91;100.00;99933.58;1731456;81;21140;-69
2021/12/04 06:47:21;;;;;;;70.93;30.43;;;;;;;-3.70;100.00;99929.27;1725369;82;21080;-69
2021/12/04 06:49:48;;;;;;;71.02;31.93;;;;;;;-3.61;100.00;99931.56;1725472;83;21115;-69
2021/12/04 06:52:18;;;;;;;73.57;32.08;;;;;;;-3.44;100.00;99924.54;1725152;82;21018;-68
2021/12/04 06:54:54;;;;;;;63.43;31.30;;;;;;;-3.46;100.00;99925.80;1735476;81;21556;-69
2021/12/04 06:57:13;;;;;;;69.43;31.63;;;;;;;-3.47;100.00;99921.93;1726928;81;21057;-68
2021/12/04 06:59:41;;;;;;;75.62;31.35;;;;;;;-3.41;100.00;99924.16;1725362;83;21033;-69
2021/12/04 07:02:08;;;;;;;68.85;31.35;;;;;;;-3.37;100.00;99923.80;1725344;81;21072;-68
2021/12/04 07:04:37;;;;;;;74.53;35.58;;;;;;;-3.34;100.00;99927.69;1745679;81;21037;-69
2021/12/04 07:07:06;;;;;;;78.33;34.98;;;;;;;-2.96;100.00;99922.27;1751570;81;21107;-71
2021/12/04 07:09:34;;;;;;;81.25;35.43;;;;;;;-2.33;100.00;99923.94;1751503;81;21551;-70
2021/12/04 07:12:01;;;;;;;71.60;33.38;;;;;;;-1.56;100.00;99913.12;1751814;81;21048;-70
2021/12/04 07:14:28;;;;;;;55.20;30.55;;;;;;;-0.71;100.00;99918.45;1752957;81;21536;-70
2021/12/04 07:16:56;;;;;;;68.50;32.85;;;;;;;0.13;100.00;99917.01;1746027;81;21131;-70
2021/12/04 07:19:23;;;;;;;55.85;28.23;;;;;;;0.95;100.00;99918.77;1750669;81;21053;-69
2021/12/04 07:21:50;;;;;;;64.50;32.58;;;;;;;1.66;100.00;99917.28;1754938;81;21120;-70
2021/12/04 07:24:16;;;;;;;63.23;31.27;;;;;;;2.40;100.00;99911.67;1748008;81;21084;-71
2021/12/04 07:26:43;;;;;;;63.60;28.85;;;;;;;3.12;100.00;99917.09;1734749;81;21107;-70
2021/12/04 07:29:10;;;;;;;55.83;27.50;;;;;;;3.58;100.00;99911.38;1724692;81;21112;-71
2021/12/04 07:31:37;;;;;;;50.28;24.23;;;;;;;3.97;100.00;99913.05;1746275;80;21095;-72
2021/12/04 07:34:04;;;;;;;47.65;24.40;;;;;;;4.30;95.25;99910.88;1749543;80;21084;-72
2021/12/04 07:36:33;;;;;;;44.03;24.55;;;;;;;4.51;89.84;99912.70;1767168;80;21056;-71
2021/12/04 07:39:00;;;;;;;50.45;25.37;;;;;;;4.75;87.30;99916.23;1748989;80;21851;-69
2021/12/04 07:41:27;;;;;;;48.38;25.35;;;;;;;4.79;82.85;99889.20;1690589;83;21345;-70
2021/12/04 07:43:54;;;;;;;46.90;26.55;;;;;;;5.07;77.18;99917.43;1682685;85;21163;-70
2021/12/04 07:46:21;;;;;;;45.20;25.52;;;;;;;5.25;80.50;99922.31;1681613;83;21098;-69
2021/12/04 07:48:47;;;;;;;45.12;25.15;;;;;;;5.37;77.82;99917.75;1777791;80;21294;-70
2021/12/04 07:51:17;;;;;;;47.60;24.25;;;;;;;5.68;77.44;99922.80;1778003;80;21140;-71
2021/12/04 07:53:46;;;;;;;39.03;22.55;;;;;;;6.01;77.67;99923.00;1759068;80;21107;-71
2021/12/04 07:56:12;;;;;;;45.10;23.12;;;;;;;6.43;74.92;99929.47;1750742;79;21515;-70
2021/12/04 07:58:42;;;;;;;34.10;19.42;;;;;;;6.81;71.57;99932.94;1762949;80;21102;-70
2021/12/04 08:01:08;;;;;;;34.43;19.92;;;;;;;6.85;68.04;99933.70;1750468;80;22168;-69
2021/12/04 08:03:37;;;;;;;36.85;19.60;;;;;;;7.07;66.66;99937.96;1756632;80;21146;-70
2021/12/04 08:06:04;;;;;;;30.43;18.32;;;;;;;7.50;69.42;99931.55;1703790;82;21630;-71
2021/12/04 08:08:30;;;;;;;29.65;18.55;;;;;;;7.94;65.28;99926.84;1694391;83;21059;-71
2021/12/04 08:10:57;;;;;;;34.73;17.98;;;;;;;8.38;60.68;99923.31;1702628;83;21056;-71
2021/12/04 08:13:24;;;;;;;34.00;19.75;;;;;;;8.58;58.07;99926.20;1701277;83;21084;-70
2021/12/04 08:15:50;;;;;;;31.20;17.80;;;;;;;8.69;56.96;99917.11;1700923;83;21119;-72
2021/12/04 08:18:17;;;;;;;28.73;18.77;;;;;;;9.00;57.55;99924.37;1757763;80;21008;-71
2021/12/04 08:20:45;;;;;;;33.58;20.62;;;;;;;9.34;55.76;99917.97;1759944;80;21036;-70
2021/12/04 08:23:11;;;;;;;35.83;20.10;;;;;;;9.56;53.69;99919.81;1758849;80;21078;-69
2021/12/04 08:25:38;;;;;;;37.10;19.65;;;;;;;9.76;55.30;99916.00;1760421;80;21575;-70
2021/12/04 08:28:04;;;;;;;31.75;19.37;;;;;;;10.02;51.28;99919.42;1757902;80;21669;-70
2021/12/04 08:30:33;;;;;;;33.53;19.27;;;;;;;10.10;50.98;99917.37;1766226;80;21136;-68
2021/12/04 08:32:59;;;;;;;31.55;19.60;;;;;;;10.27;52.52;99901.77;1754078;80;21072;-72
2021/12/04 08:35:29;;;;;;;31.37;19.70;;;;;;;10.55;47.53;99902.01;1755233;80;21041;-71
2021/12/04 08:37:58;;;;;;;37.25;21.17;;;;;;;10.34;49.90;99898.94;1754220;80;21558;-69
2021/12/04 08:40:29;;;;;;;33.83;19.87;;;;;;;10.28;49.19;99902.22;1751081;80;21319;-73
2021/12/04 08:42:55;;;;;;;35.65;19.65;;;;;;;10.53;50.50;99897.27;1751642;80;21617;-71
2021/12/04 08:45:22;;;;;;;28.42;17.98;;;;;;;10.92;50.60;99896.54;1709432;83;21353;-73
2021/12/04 08:47:48;;;;;;;27.02;17.00;;;;;;;11.38;48.44;99897.19;1712589;83;21069;-73
2021/12/04 08:50:20;;;;;;;28.98;17.12;;;;;;;11.76;48.54;99890.20;1759077;80;21551;-74
2021/12/04 08:52:46;;;;;;;26.07;16.30;;;;;;;11.92;47.54;99894.35;1760093;80;21106;-70
2021/12/04 08:55:14;;;;;;;26.48;15.83;;;;;;;12.10;46.24;99887.80;1764382;80;21064;-72
2021/12/04 08:57:40;;;;;;;25.50;14.60;;;;;;;12.21;46.68;99888.63;1718116;82;21141;-72
2021/12/04 09:00:12;;;;;;;25.57;15.80;;;;;;;12.13;43.81;99885.04;1719934;82;21009;-72
2021/12/04 09:02:39;;;;;;;22.85;14.65;;;;;;;11.92;44.65;99885.12;1758032;80;21109;-72
2021/12/04 09:05:07;;;;;;;24.85;16.35;;;;;;;11.94;46.32;99877.98;1753068;80;21530;-70
2021/12/04 09:07:34;;;;;;;24.98;15.70;;;;;;;12.22;43.48;99874.52;1750553;80;21079;-73
2021/12/04 09:10:00;;;;;;;27.48;16.62;;;;;;;12.17;44.65;99873.41;1761494;80;21067;-72
2021/12/04 09:12:27;;;;;;;27.73;15.95;;;;;;;12.19;44.82;99874.17;1762973;80;21050;-71
2021/12/04 09:14:55;;;;;;;26.90;16.35;;;;;;;12.46;43.21;99868.50;1751638;80;21597;-72
2021/12/04 09:17:22;;;;;;;27.87;17.85;;;;;;;12.66;44.07;99864.41;1697471;83;21094;-72
2021/12/04 09:19:50;;;;;;;25.45;15.85;;;;;;;13.00;42.08;99860.07;1699243;83;21069;-71
2021/12/04 09:22:23;;;;;;;23.00;15.05;;;;;;;13.21;41.79;99857.63;1694038;83;21516;-70
2021/12/04 09:24:48;;;;;;;28.75;18.37;;;;;;;13.06;41.91;99863.70;1695953;83;21154;-71
2021/12/04 09:29:53;;;;;;;25.62;15.85;;;;;;;13.14;40.96;99862.85;1770767;80;21151;-70
2021/12/04 09:32:38;;;;;;;29.52;17.20;;;;;;;13.19;40.27;99850.71;1767043;80;21049;-69
2021/12/04 09:59:14;;;;;;;28.23;16.07;;;;;;;14.02;38.74;99845.80;1751583;81;21064;-70
2021/12/04 10:04:59;;;;;;;19.85;13.55;;;;;;;13.84;37.30;99825.64;1763024;81;21058;-71
2021/12/04 10:33:53;;;;;;;31.80;19.70;;;;;;;11.50;38.73;99817.56;1731188;82;21092;-70
2021/12/04 10:36:36;;;;;;;33.13;19.40;;;;;;;11.37;38.67;99815.08;1732089;82;21494;-70
2021/12/04 10:39:05;;;;;;;30.92;18.40;;;;;;;11.37;38.90;99811.13;1733441;82;21094;-70
2021/12/04 10:41:41;;;;;;;28.75;17.87;;;;;;;11.23;38.36;99811.75;1733804;82;21029;-70
2021/12/04 10:44:18;;;;;;;33.90;20.05;;;;;;;10.63;39.07;99812.19;1739308;82;21058;-68
2021/12/04 10:47:11;;;;;;;37.42;21.02;;;;;;;10.45;40.19;99815.12;1728086;82;21081;-70
2021/12/04 10:55:23;;;;;;;39.50;22.27;;;;;;;10.92;42.02;99797.73;1726871;82;21117;-70
2021/12/04 11:00:43;;;;;;;39.33;22.17;;;;;;;11.27;41.05;99800.59;1737157;82;21057;-73
2021/12/04 11:04:14;;;;;;;41.18;23.45;;;;;;;11.33;40.30;99792.41;1736290;82;21487;-71
2021/12/04 11:41:22;;;;;;;33.75;18.30;;;;;;;11.69;39.70;99754.72;1738673;82;21061;-71
2021/12/04 11:43:56;;;;;;;32.93;17.62;;;;;;;11.98;37.67;99755.12;1738644;82;21170;-70
2021/12/04 11:46:28;;;;;;;31.95;17.52;;;;;;;11.83;38.36;99753.59;1729476;82;21137;-71
2021/12/04 11:48:56;;;;;;;34.58;18.73;;;;;;;11.63;39.38;99756.32;1741031;82;21054;-72
2021/12/04 11:51:24;;;;;;;35.70;18.73;;;;;;;11.58;39.28;99757.86;1749419;82;21147;-70
2021/12/04 11:53:54;;;;;;;41.10;20.90;;;;;;;11.70;41.47;99757.73;1728754;82;21111;-72
2021/12/04 11:56:27;;;;;;;52.50;22.55;;;;;;;11.88;40.47;99760.84;1716250;83;21082;-71
2021/12/04 11:58:55;;;;;;;37.45;19.98;;;;;;;11.72;38.02;99753.24;1709706;82;21492;-71
2021/12/04 12:01:35;;;;;;;46.60;19.92;;;;;;;11.03;42.13;99757.28;1710492;83;21076;-71
2021/12/04 12:04:07;;;;;;;38.00;19.70;;;;;;;10.55;39.54;99758.51;1713676;82;21057;-73
2021/12/04 12:06:41;;;;;;;33.48;18.75;;;;;;;10.45;41.74;99757.20;1694389;83;21632;-71
2021/12/04 12:09:15;;;;;;;45.15;23.07;;;;;;;10.42;43.45;99752.05;1708651;82;21102;-72
2021/12/04 12:11:56;;;;;;;45.50;22.58;;;;;;;10.46;41.28;99755.80;1711252;82;21097;-72
2021/12/04 12:14:44;;;;;;;45.92;24.20;;;;;;;10.43;43.50;99755.09;1704566;83;21104;-72
2021/12/04 12:17:08;;;;;;;48.63;24.65;;;;;;;10.11;42.13;99759.88;1707339;82;21021;-71
2021/12/04 12:19:42;;;;;;;50.15;26.50;;;;;;;9.66;42.21;99753.79;1703112;83;21136;-72
2021/12/04 12:22:29;;;;;;;42.05;23.98;;;;;;;9.29;44.83;99746.44;1701837;82;21166;-71
2021/12/04 12:33:24;;;;;;;55.92;30.95;;;;;;;7.94;47.10;99735.42;1693396;82;21041;-70
2021/12/04 12:36:07;;;;;;;60.65;32.17;;;;;;;7.80;46.97;99736.30;1692482;83;22201;-70
2021/12/04 12:38:53;;;;;;;45.88;26.80;;;;;;;7.43;50.11;99737.44;1685956;84;21074;-73
2021/12/04 12:41:37;;;;;;;55.33;28.23;;;;;;;7.24;49.81;99727.52;1717904;82;21139;-71
2021/12/04 12:44:19;;;;;;;50.85;27.52;;;;;;;7.00;49.50;99736.11;1747261;82;21032;-70
2021/12/04 12:47:00;;;;;;;52.35;28.75;;;;;;;6.80;51.03;99745.37;1760080;80;21075;-72
2021/12/04 12:49:33;;;;;;;62.60;30.72;;;;;;;6.67;51.48;99742.67;1747752;80;21131;-70
2021/12/04 12:52:11;;;;;;;57.55;29.75;;;;;;;6.50;51.31;99745.30;1751160;80;21088;-71
2021/12/04 12:54:55;;;;;;;49.83;27.73;;;;;;;6.39;52.73;99744.71;1754244;80;21036;-71
2021/12/04 12:57:43;;;;;;;53.68;28.20;;;;;;;6.29;53.55;99747.17;1760269;80;21037;-70
2021/12/04 13:11:46;;;;;;;56.85;27.48;;;;;;;5.54;55.46;99735.88;1755925;80;21029;-77
2021/12/04 13:14:19;;;;;;;51.23;26.87;;;;;;;5.18;57.83;99730.13;1764788;80;21060;-78
2021/12/04 13:16:51;;;;;;;54.85;30.12;;;;;;;4.69;57.61;99741.55;1771165;80;21115;-79
2021/12/04 13:19:20;;;;;;;48.10;26.48;;;;;;;4.13;58.90;99733.87;1758700;80;20986;-79
2021/12/04 13:21:50;;;;;;;63.15;29.85;;;;;;;3.76;61.64;99736.23;1757442;80;20958;-77
2021/12/04 13:24:17;;;;;;;52.43;26.85;;;;;;;3.43;61.85;99738.45;1748554;80;21093;-79
2021/12/04 13:26:47;;;;;;;61.45;30.48;;;;;;;3.09;65.48;99739.35;1759142;80;21078;-80
2021/12/04 13:29:17;;;;;;;55.33;30.25;;;;;;;2.69;66.58;99741.99;1754565;80;21864;-80
2021/12/04 13:31:44;;;;;;;54.88;26.60;;;;;;;2.37;67.73;99749.24;1759817;80;21060;-79
2021/12/04 13:34:14;;;;;;;62.88;31.60;;;;;;;2.03;72.26;99747.83;1755702;80;21201;-78
2021/12/04 13:36:40;;;;;;;55.83;31.68;;;;;;;1.77;72.07;99742.85;1759998;80;21602;-78
2021/12/04 13:39:11;;;;;;;57.65;27.20;;;;;;;1.59;74.50;99745.13;1742311;80;21056;-78
2021/12/04 13:41:42;;;;;;;55.85;28.90;;;;;;;1.39;76.62;99741.36;1754511;80;21060;-79
2021/12/04 13:44:11;;;;;;;54.20;29.02;;;;;;;1.23;77.04;99738.42;1758879;80;21060;-79
2021/12/04 13:46:45;;;;;;;53.02;26.10;;;;;;;1.12;79.42;99736.32;1762689;80;21043;-78
2021/12/04 13:49:15;;;;;;;54.90;27.98;;;;;;;0.92;80.93;99741.17;1758424;80;21740;-78
2021/12/04 13:51:41;;;;;;;48.80;25.65;;;;;;;0.82;81.30;99735.58;1752772;80;21033;-79
2021/12/04 13:54:09;;;;;;;54.95;27.55;;;;;;;0.73;84.04;99738.20;1758769;80;21088;-78
2021/12/04 13:56:35;;;;;;;63.60;29.72;;;;;;;0.63;83.23;99738.23;1782753;80;21291;-78
2021/12/04 13:59:05;;;;;;;69.95;29.40;;;;;;;0.57;85.73;99743.42;1783562;80;21032;-78
2021/12/04 14:01:42;;;;;;;60.40;29.27;;;;;;;0.47;85.95;99741.73;1769675;80;21555;-79
2021/12/04 14:04:16;;;;;;;71.85;31.60;;;;;;;0.39;85.91;99740.88;1773287;80;22221;-78
2021/12/04 14:06:50;;;;;;;80.83;35.73;;;;;;;0.31;88.26;99730.98;1764766;80;21110;-78
2021/12/04 14:09:17;;;;;;;117.28;42.88;;;;;;;0.24;87.21;99734.45;1755942;80;20996;-77
2021/12/04 14:11:44;;;;;;;101.78;38.85;;;;;;;0.16;88.32;99735.73;1783600;80;21044;-78
2021/12/04 14:14:18;;;;;;;60.75;27.37;;;;;;;0.08;89.70;99743.52;1729430;80;21040;-76
2021/12/04 14:16:46;;;;;;;85.83;32.85;;;;;;;0.00;89.24;99753.03;1782237;80;21057;-76
2021/12/04 14:19:17;;;;;;;74.15;30.02;;;;;;;-0.05;91.90;99750.85;1781909;80;21115;-78
2021/12/04 14:21:55;;;;;;;56.10;26.68;;;;;;;-0.15;94.21;99742.67;1784144;80;21036;-77
2021/12/04 14:24:33;;;;;;;63.17;28.45;;;;;;;-0.19;93.53;99743.52;1783991;80;21060;-78
2021/12/04 14:27:02;;;;;;;60.98;27.10;;;;;;;-0.26;93.77;99744.80;1773589;80;21013;-77